createdAt,value
2022-12-03T00:00:56.110Z,83.08
2022-12-03T00:03:58.736Z,83.48
2022-12-03T00:07:01.135Z,83.75
2022-12-03T00:10:05.060Z,83.72
2022-12-03T00:13:08.515Z,83.73
2022-12-03T00:16:10.903Z,83.85
2022-12-03T00:19:13.475Z,84.21
2022-12-03T00:22:15.824Z,83.89
2022-12-03T00:25:18.394Z,84.08
2022-12-03T00:28:20.639Z,84.67
2022-12-03T00:31:23.629Z,83.96
2022-12-03T00:34:26.007Z,84.43
2022-12-03T00:37:28.491Z,85.02
2022-12-03T00:40:30.845Z,84.88
2022-12-03T00:43:33.116Z,85.03
2022-12-03T00:46:35.393Z,85.31
2022-12-03T00:49:37.845Z,85.16
2022-12-03T00:52:40.089Z,85.39
2022-12-03T00:55:42.357Z,84.95
2022-12-03T00:58:44.622Z,85.05
2022-12-03T01:01:46.933Z,84.52
2022-12-03T01:04:49.189Z,85.12
2022-12-03T01:07:51.642Z,84.40
2022-12-03T01:10:53.929Z,85.07
2022-12-03T01:13:56.186Z,85.66
2022-12-03T01:16:58.610Z,86.92
2022-12-03T01:20:01.709Z,87.06
2022-12-03T01:23:04.479Z,86.96
2022-12-03T01:26:06.810Z,86.70
2022-12-03T01:29:09.129Z,87.00
2022-12-03T01:32:17.896Z,86.80
2022-12-03T01:35:20.255Z,86.86
2022-12-03T01:38:22.465Z,86.79
2022-12-03T01:41:25.239Z,86.79
2022-12-03T01:44:34.563Z,86.93
2022-12-03T01:47:38.162Z,87.25
2022-12-03T01:50:40.449Z,86.84
2022-12-03T01:53:44.349Z,87.02
2022-12-03T01:56:47.446Z,87.12
2022-12-03T01:59:50.381Z,87.59
2022-12-03T02:02:58.639Z,87.38
2022-12-03T02:06:01.002Z,87.08
2022-12-03T02:09:03.470Z,86.68
2022-12-03T02:12:06.232Z,86.82
2022-12-03T02:15:10.285Z,86.49
2022-12-03T02:18:12.841Z,86.20
2022-12-03T02:21:35.514Z,86.30
2022-12-03T02:24:48.667Z,85.73
2022-12-03T02:27:53.344Z,85.84
2022-12-03T02:30:56.128Z,86.18
2022-12-03T02:33:58.449Z,86.16
2022-12-03T02:37:01.347Z,85.89
2022-12-03T02:40:10.617Z,85.92
2022-12-03T02:43:16.580Z,86.00
2022-12-03T02:46:18.891Z,86.37
2022-12-03T02:49:21.432Z,86.26
2022-12-03T02:52:24.190Z,86.63
2022-12-03T02:55:30.781Z,86.56
2022-12-03T02:58:38.118Z,86.37
2022-12-03T03:01:40.489Z,85.97
2022-12-03T03:04:43.842Z,86.44
2022-12-03T03:07:46.544Z,86.17
2022-12-03T03:10:49.786Z,85.66
2022-12-03T03:13:52.032Z,85.52
2022-12-03T03:16:57.385Z,85.60
2022-12-03T03:19:59.865Z,85.63
2022-12-03T03:23:13.288Z,85.18
2022-12-03T03:26:16.694Z,85.68
2022-12-03T03:29:19.399Z,85.29
2022-12-03T03:32:21.678Z,85.39
2022-12-03T03:35:25.154Z,84.74
2022-12-03T03:38:29.849Z,84.92
2022-12-03T03:41:33.229Z,84.69
2022-12-03T03:44:35.860Z,84.76
2022-12-03T03:47:38.575Z,85.28
2022-12-03T03:50:42.161Z,84.83
2022-12-03T03:53:49.805Z,85.27
2022-12-03T03:56:52.368Z,85.25
2022-12-03T03:59:54.611Z,84.61
2022-12-03T04:02:56.983Z,85.00
2022-12-03T04:05:59.290Z,84.55
2022-12-03T04:09:01.613Z,84.83
2022-12-03T04:12:22.529Z,84.89
2022-12-03T04:15:25.548Z,84.74
2022-12-03T04:18:43.058Z,84.48
2022-12-03T04:22:04.159Z,84.42
2022-12-03T04:25:34.275Z,84.76
2022-12-03T04:28:51.364Z,84.42
2022-12-03T04:32:12.345Z,84.34
2022-12-03T04:35:33.711Z,83.97
2022-12-03T04:38:36.061Z,83.90
2022-12-03T04:41:38.300Z,84.04
2022-12-03T04:44:40.688Z,84.78
2022-12-03T04:47:44.768Z,83.95
2022-12-03T04:50:47.106Z,84.01
2022-12-03T04:53:49.337Z,83.39
2022-12-03T04:56:51.691Z,83.35
2022-12-03T04:59:53.894Z,83.74
2022-12-03T05:02:56.148Z,83.39
2022-12-03T05:05:58.492Z,84.05
2022-12-03T05:09:02.144Z,82.75
2022-12-03T05:12:04.769Z,82.14
2022-12-03T05:15:07.460Z,82.91
2022-12-03T05:18:09.734Z,82.34
2022-12-03T05:21:12.238Z,83.22
2022-12-03T05:24:14.559Z,83.71
2022-12-03T05:27:23.133Z,83.50
2022-12-03T05:30:26.474Z,84.23
2022-12-03T05:33:28.753Z,83.74
2022-12-03T05:36:30.995Z,84.20
2022-12-03T05:39:33.265Z,84.00
2022-12-03T05:42:53.934Z,83.98
2022-12-03T05:45:56.299Z,84.09
2022-12-03T05:48:58.635Z,84.09
2022-12-03T05:52:00.954Z,83.63
2022-12-03T05:55:04.620Z,84.14
2022-12-03T05:58:07.206Z,83.99
2022-12-03T06:01:09.486Z,83.65
2022-12-03T06:04:12.074Z,83.90
2022-12-03T06:07:14.539Z,83.82
2022-12-03T06:10:20.851Z,83.90
2022-12-03T06:13:23.139Z,83.61
2022-12-03T06:16:25.624Z,83.74
2022-12-03T06:19:27.955Z,83.74
2022-12-03T06:22:30.170Z,83.69
2022-12-03T06:25:32.569Z,83.45
2022-12-03T06:28:34.810Z,82.78
2022-12-03T06:31:37.137Z,83.14
2022-12-03T06:34:39.482Z,82.72
2022-12-03T06:37:41.766Z,83.17
2022-12-03T06:40:44.034Z,82.81
2022-12-03T06:43:46.847Z,82.43
2022-12-03T06:46:49.268Z,82.84
2022-12-03T06:49:51.591Z,82.47
2022-12-03T06:52:53.963Z,82.42
2022-12-03T06:55:56.277Z,82.61
2022-12-03T06:58:58.676Z,82.44
2022-12-03T07:02:01.277Z,82.18
2022-12-03T07:05:04.335Z,82.46
2022-12-03T07:08:07.142Z,81.92
2022-12-03T07:11:28.198Z,81.68
2022-12-03T07:14:30.498Z,81.43
2022-12-03T07:17:32.738Z,81.12
2022-12-03T07:20:35.014Z,80.84
2022-12-03T07:23:37.731Z,80.63
2022-12-03T07:26:40.110Z,79.88
2022-12-03T07:29:42.485Z,80.67
2022-12-03T07:32:44.769Z,80.24
2022-12-03T07:35:47.021Z,80.92
2022-12-03T07:38:49.360Z,80.68
2022-12-03T07:41:51.637Z,81.09
2022-12-03T07:44:54.958Z,80.56
2022-12-03T07:47:58.014Z,80.76
2022-12-03T07:51:00.376Z,80.49
2022-12-03T07:54:02.682Z,80.47
2022-12-03T07:57:05.014Z,80.19
2022-12-03T08:00:08.879Z,79.93
2022-12-03T08:03:11.211Z,79.99
2022-12-03T08:06:13.696Z,79.73
2022-12-03T08:09:16.589Z,79.72
2022-12-03T08:12:40.243Z,79.46
2022-12-03T08:15:43.221Z,78.50
2022-12-03T08:18:47.102Z,78.74
2022-12-03T08:21:49.558Z,78.25
2022-12-03T08:24:52.071Z,78.38
2022-12-03T08:28:00.448Z,78.87
2022-12-03T08:31:20.089Z,78.39
2022-12-03T08:34:31.921Z,78.13
2022-12-03T08:37:36.164Z,77.08
2022-12-03T08:40:43.898Z,76.88
2022-12-03T08:43:46.509Z,76.26
2022-12-03T08:47:21.364Z,76.27
2022-12-03T08:50:31.550Z,75.12
2022-12-03T08:53:36.945Z,74.69
2022-12-03T08:56:39.289Z,74.10
2022-12-03T08:59:45.505Z,73.24
2022-12-03T09:02:51.346Z,71.44
2022-12-03T09:05:53.685Z,71.04
2022-12-03T09:08:56.235Z,70.35
2022-12-03T09:11:58.828Z,70.51
2022-12-03T09:15:01.127Z,70.33
2022-12-03T09:18:03.651Z,69.37
2022-12-03T09:21:06.543Z,69.27
2022-12-03T09:24:12.028Z,69.04
2022-12-03T09:27:14.381Z,67.50
2022-12-03T09:30:17.238Z,65.99
2022-12-03T09:33:21.539Z,65.17
2022-12-03T09:36:23.873Z,64.71
2022-12-03T09:39:26.471Z,64.82
2022-12-03T09:42:28.767Z,64.34
2022-12-03T09:45:31.150Z,65.06
2022-12-03T09:48:33.557Z,65.82
2022-12-03T09:51:36.772Z,64.95
2022-12-03T09:54:42.808Z,64.66
2022-12-03T09:57:48.278Z,64.37
2022-12-03T10:00:52.599Z,64.24
2022-12-03T10:03:54.984Z,64.20
2022-12-03T10:06:59.074Z,64.31
2022-12-03T10:10:01.598Z,63.27
2022-12-03T10:13:07.332Z,63.61
2022-12-03T10:16:13.437Z,62.43
2022-12-03T10:19:26.117Z,61.12
2022-12-03T10:22:28.624Z,59.14
2022-12-03T10:25:30.993Z,56.65
2022-12-03T10:28:43.713Z,56.95
2022-12-03T10:31:54.342Z,57.25
2022-12-03T10:35:16.238Z,53.77
2022-12-03T10:38:20.018Z,55.64
2022-12-03T10:41:28.155Z,58.04
2022-12-03T10:44:30.718Z,60.52
2022-12-03T10:47:33.182Z,61.38
2022-12-03T10:50:36.309Z,60.64
2022-12-03T10:53:40.667Z,58.93
2022-12-03T10:56:43.900Z,58.56
2022-12-03T10:59:46.865Z,58.30
2022-12-03T11:02:54.819Z,57.91
2022-12-03T11:06:01.001Z,59.50
2022-12-03T11:09:08.826Z,59.63
2022-12-03T11:12:24.717Z,60.03
2022-12-03T11:15:43.946Z,61.12
2022-12-03T11:18:58.375Z,60.69
2022-12-03T11:22:04.940Z,60.18
2022-12-03T11:25:25.478Z,58.54
2022-12-03T11:28:27.723Z,58.66
2022-12-03T11:31:37.517Z,57.69
2022-12-03T11:34:40.677Z,56.20
2022-12-03T11:37:43.067Z,57.59
2022-12-03T11:41:08.184Z,57.34
2022-12-03T11:44:31.504Z,58.42
2022-12-03T11:47:39.079Z,58.54
2022-12-03T11:50:44.902Z,58.55
2022-12-03T11:53:47.870Z,59.30
2022-12-03T11:56:52.289Z,59.91
2022-12-03T12:00:07.321Z,60.33
2022-12-03T12:03:23.079Z,60.53
2022-12-03T12:06:25.531Z,60.66
2022-12-03T12:09:56.005Z,61.22
2022-12-03T12:12:58.422Z,61.41
2022-12-03T12:16:02.988Z,61.33
2022-12-03T12:19:27.997Z,60.67
2022-12-03T12:22:31.379Z,60.79
2022-12-03T12:25:40.355Z,60.57
2022-12-03T12:28:42.706Z,60.57
2022-12-03T12:31:47.319Z,60.96
2022-12-03T12:34:57.957Z,60.97
2022-12-03T12:38:14.747Z,60.76
2022-12-03T12:41:17.214Z,61.63
2022-12-03T12:44:23.245Z,61.74
2022-12-03T12:47:26.050Z,62.28
2022-12-03T12:50:28.423Z,63.35
2022-12-03T12:53:34.140Z,62.91
2022-12-03T12:56:36.781Z,63.21
2022-12-03T12:59:39.309Z,63.84
2022-12-03T13:03:00.026Z,64.24
2022-12-03T13:06:03.278Z,65.34
2022-12-03T13:09:12.949Z,65.02
2022-12-03T13:12:21.889Z,65.62
2022-12-03T13:15:42.497Z,66.22
2022-12-03T13:18:53.324Z,65.45
2022-12-03T13:21:58.645Z,65.80
2022-12-03T13:25:44.038Z,65.92
2022-12-03T13:28:45.563Z,65.89
2022-12-03T13:31:58.037Z,66.12
2022-12-03T13:35:06.515Z,65.46
2022-12-03T13:38:16.946Z,65.89
2022-12-03T13:41:40.033Z,66.32
2022-12-03T13:44:49.018Z,65.93
2022-12-03T13:48:24.923Z,66.90
2022-12-03T13:51:32.654Z,66.24
2022-12-03T13:54:37.951Z,66.36
2022-12-03T13:57:40.357Z,67.56
2022-12-03T14:00:42.778Z,67.37
2022-12-03T14:03:45.207Z,67.21
2022-12-03T14:06:47.585Z,67.54
2022-12-03T14:09:49.852Z,68.21
2022-12-03T14:12:52.156Z,68.09
2022-12-03T14:15:54.440Z,68.76
2022-12-03T14:18:56.729Z,68.22
2022-12-03T14:22:00.242Z,68.55
2022-12-03T14:25:02.564Z,68.87
2022-12-03T14:28:08.732Z,68.87
2022-12-03T14:31:12.593Z,69.01
2022-12-03T14:34:14.912Z,68.70
2022-12-03T14:37:17.626Z,69.34
2022-12-03T14:40:22.189Z,69.57
2022-12-03T14:43:25.250Z,70.09
2022-12-03T14:46:27.607Z,69.64
2022-12-03T14:49:30.106Z,70.20
2022-12-03T14:52:32.794Z,70.67
2022-12-03T14:55:35.044Z,70.46
2022-12-03T14:58:37.385Z,70.40
2022-12-03T15:01:39.784Z,70.58
2022-12-03T15:04:42.239Z,71.34
2022-12-03T15:07:44.617Z,71.68
2022-12-03T15:10:46.988Z,72.25
2022-12-03T15:13:49.481Z,72.86
2022-12-03T15:16:51.916Z,73.30
2022-12-03T15:19:54.390Z,73.46
2022-12-03T15:22:56.863Z,73.73
2022-12-03T15:25:59.398Z,73.50
2022-12-03T15:29:01.671Z,73.74
2022-12-03T15:32:03.966Z,73.52
2022-12-03T15:35:06.963Z,73.87
2022-12-03T15:38:10.138Z,73.77
2022-12-03T15:41:21.700Z,74.22
2022-12-03T15:44:23.951Z,74.90
2022-12-03T15:47:26.406Z,75.42
2022-12-03T15:50:28.736Z,75.72
2022-12-03T15:53:31.036Z,76.10
2022-12-03T15:56:37.600Z,76.51
2022-12-03T15:59:40.010Z,76.88
2022-12-03T16:02:45.103Z,77.14
2022-12-03T16:05:51.449Z,77.51
2022-12-03T16:08:53.688Z,78.06
2022-12-03T16:11:56.135Z,78.59
2022-12-03T16:14:58.419Z,78.93
2022-12-03T16:18:01.154Z,79.60
2022-12-03T16:21:03.549Z,79.22
2022-12-03T16:24:06.115Z,79.81
2022-12-03T16:27:08.897Z,79.59
2022-12-03T16:30:11.757Z,80.09
2022-12-03T16:33:14.057Z,79.63
2022-12-03T16:36:16.654Z,80.56
2022-12-03T16:39:19.352Z,80.80
2022-12-03T16:42:21.701Z,81.01
2022-12-03T16:45:29.653Z,81.76
2022-12-03T16:48:31.976Z,82.57
2022-12-03T16:51:34.198Z,82.12
2022-12-03T16:54:36.598Z,81.66
2022-12-03T16:57:38.874Z,82.98
2022-12-03T17:00:41.152Z,82.51
2022-12-03T17:03:43.483Z,82.28
2022-12-03T17:06:46.794Z,82.50
2022-12-03T17:09:49.259Z,82.69
2022-12-03T17:16:14.307Z,82.35
2022-12-03T17:19:17.391Z,82.17
2022-12-03T17:22:19.711Z,82.17
2022-12-03T17:25:22.159Z,81.65
2022-12-03T17:28:24.393Z,82.31
2022-12-03T17:31:26.686Z,82.64
2022-12-03T17:34:29.027Z,82.52
2022-12-03T17:37:31.282Z,82.84
2022-12-03T17:40:33.549Z,83.23
2022-12-03T17:43:35.897Z,82.95
2022-12-03T17:46:38.323Z,84.08
2022-12-03T17:49:40.670Z,83.74
2022-12-03T17:52:43.016Z,83.17
2022-12-03T17:55:47.013Z,83.63
2022-12-03T17:58:49.326Z,83.75
2022-12-03T18:01:51.691Z,83.91
2022-12-03T18:04:54.060Z,84.14
2022-12-03T18:07:56.530Z,84.40
2022-12-03T18:10:58.811Z,84.30
2022-12-03T18:14:01.501Z,85.09
2022-12-03T18:17:03.756Z,84.58
2022-12-03T18:20:07.347Z,85.31
2022-12-03T18:23:09.814Z,85.60
2022-12-03T18:26:12.203Z,85.01
2022-12-03T18:29:14.509Z,85.23
2022-12-03T18:32:28.443Z,84.94
2022-12-03T18:35:31.774Z,86.37
2022-12-03T18:38:34.214Z,85.88
2022-12-03T18:41:36.865Z,85.65
2022-12-03T18:44:39.098Z,85.82
2022-12-03T18:47:41.477Z,85.90
2022-12-03T18:50:45.282Z,85.92
2022-12-03T18:53:48.356Z,85.78
2022-12-03T18:56:50.904Z,86.43
2022-12-03T18:59:53.538Z,86.09
2022-12-03T19:03:04.309Z,85.88
2022-12-03T19:06:17.090Z,86.11
2022-12-03T19:09:21.048Z,85.95
2022-12-03T19:12:23.527Z,85.90
2022-12-03T19:15:25.904Z,86.08
2022-12-03T19:18:28.207Z,86.03
2022-12-03T19:21:33.694Z,86.55
2022-12-03T19:24:36.315Z,86.15
2022-12-03T19:27:38.601Z,85.91
2022-12-03T19:30:40.855Z,86.29
2022-12-03T19:33:44.262Z,86.43
2022-12-03T19:36:47.536Z,86.94
2022-12-03T19:39:54.227Z,86.36
2022-12-03T19:42:56.897Z,86.53
2022-12-03T19:46:07.062Z,86.93
2022-12-03T19:49:10.896Z,86.49
2022-12-03T19:52:13.130Z,86.28
2022-12-03T19:55:19.492Z,86.55
2022-12-03T19:58:22.150Z,86.36
2022-12-03T20:01:30.138Z,86.66
2022-12-03T20:04:32.542Z,86.72
2022-12-03T20:07:34.867Z,86.81
2022-12-03T20:10:40.754Z,86.63
2022-12-03T20:13:44.009Z,87.59
2022-12-03T20:16:47.635Z,87.17
2022-12-03T20:19:49.938Z,86.62
2022-12-03T20:22:52.305Z,86.59
2022-12-03T20:25:55.077Z,87.12
2022-12-03T20:28:58.332Z,87.00
2022-12-03T20:32:01.155Z,86.82
2022-12-03T20:35:04.078Z,87.55
2022-12-03T20:38:06.436Z,87.27
2022-12-03T20:41:12.933Z,87.15
2022-12-03T20:44:15.355Z,87.03
2022-12-03T20:47:17.715Z,87.10
2022-12-03T20:50:19.950Z,87.21
2022-12-03T20:53:25.079Z,87.03
2022-12-03T20:56:34.270Z,87.31
2022-12-03T20:59:36.583Z,87.17
2022-12-03T21:02:39.010Z,86.79
2022-12-03T21:05:43.962Z,87.21
2022-12-03T21:08:46.567Z,86.57
2022-12-03T21:11:48.884Z,86.88
2022-12-03T21:14:51.144Z,86.85
2022-12-03T21:17:53.519Z,86.66
2022-12-03T21:20:55.927Z,87.77
2022-12-03T21:23:58.691Z,87.60
2022-12-03T21:27:01.074Z,87.03
2022-12-03T21:30:03.776Z,86.84
2022-12-03T21:33:07.050Z,87.21
2022-12-03T21:36:10.535Z,87.19
2022-12-03T21:39:12.867Z,87.13
2022-12-03T21:42:34.882Z,87.69
2022-12-03T21:45:40.638Z,87.05
2022-12-03T21:48:46.164Z,87.05
2022-12-03T21:51:48.785Z,86.31
2022-12-03T21:54:54.296Z,86.82
2022-12-03T21:57:56.655Z,86.53
2022-12-03T22:00:59.081Z,86.11
2022-12-03T22:04:01.421Z,86.33
2022-12-03T22:07:04.701Z,86.08
2022-12-03T22:10:09.638Z,85.69
2022-12-03T22:13:12.267Z,85.64
2022-12-03T22:16:20.463Z,85.08
2022-12-03T22:19:24.046Z,84.56
2022-12-03T22:22:26.608Z,84.40
2022-12-03T22:25:30.509Z,84.26
2022-12-03T22:28:34.368Z,84.42
2022-12-03T22:31:36.739Z,84.32
2022-12-03T22:34:43.744Z,84.02
2022-12-03T22:37:48.428Z,84.27
2022-12-03T22:40:50.929Z,83.73
2022-12-03T22:43:53.429Z,83.66
2022-12-03T22:46:55.846Z,83.93
2022-12-03T22:49:58.168Z,83.90
2022-12-03T22:53:00.486Z,83.95
2022-12-03T22:56:03.060Z,83.75
2022-12-03T22:59:06.070Z,84.01
2022-12-03T23:02:08.330Z,83.86
2022-12-03T23:05:10.639Z,83.71
2022-12-03T23:08:16.079Z,83.81
2022-12-03T23:11:19.598Z,83.96
2022-12-03T23:14:21.927Z,83.76
2022-12-03T23:17:24.218Z,83.67
2022-12-03T23:20:26.831Z,83.92
2022-12-03T23:23:29.148Z,83.77
2022-12-03T23:26:35.259Z,83.19
2022-12-03T23:29:37.504Z,83.41
2022-12-03T23:32:39.935Z,84.01
2022-12-03T23:35:42.308Z,84.35
2022-12-03T23:38:44.888Z,85.02
2022-12-03T23:41:50.857Z,85.01
2022-12-03T23:44:53.112Z,84.70
2022-12-03T23:47:58.316Z,85.65
2022-12-03T23:51:06.170Z,85.41
2022-12-03T23:54:09.753Z,86.33
2022-12-03T23:57:12.773Z,86.20
